Time;durP1;ratioP1;P1;durP2;ratioP2;P2;SDS_P1;SDS_P2;PMS_P1;PMS_P2;Temp;Humidity;BMP_temperature;BMP_pressure;BME280_temperature;BME280_humidity;BME280_pressure;Samples;Min_cycle;Max_cycle;Signal;HPM_P1;HPM_P2
2021/01/27 00:00:36;;;;;;;1999.90;999.90;;;2.60;99.90;;;;;;5062527;28;20196;-81
2021/01/27 00:03:03;;;;;;;1999.90;999.90;;;2.70;99.90;;;;;;5060989;28;20173;-81
2021/01/27 00:05:35;;;;;;;1999.90;999.90;;;2.60;99.90;;;;;;5061809;28;20192;-81
2021/01/27 00:08:01;;;;;;;1999.90;999.90;;;2.60;99.90;;;;;;5061115;28;20255;-80
2021/01/27 00:10:28;;;;;;;1999.90;999.90;;;2.60;99.90;;;;;;5060500;28;20175;-81
2021/01/27 00:12:55;;;;;;;1999.90;999.90;;;2.50;99.90;;;;;;5061644;28;20172;-81
2021/01/27 00:15:29;;;;;;;1999.90;999.90;;;2.50;99.90;;;;;;5061686;28;20168;-81
2021/01/27 00:17:54;;;;;;;1999.90;999.90;;;2.60;99.90;;;;;;5061580;28;20153;-81
2021/01/27 00:20:23;;;;;;;1999.90;999.90;;;2.60;99.90;;;;;;5061014;28;20195;-81
2021/01/27 00:22:49;;;;;;;1999.90;999.90;;;2.70;99.90;;;;;;5061438;28;20477;-81
2021/01/27 00:25:18;;;;;;;1999.90;999.90;;;2.70;99.90;;;;;;5060903;28;20187;-81
2021/01/27 00:27:43;;;;;;;1999.90;999.90;;;2.60;99.90;;;;;;5061229;28;20434;-81
2021/01/27 00:30:21;;;;;;;1999.90;999.90;;;2.60;99.90;;;;;;5060977;28;20161;-81
2021/01/27 00:32:48;;;;;;;1999.90;999.90;;;2.60;99.90;;;;;;5061624;28;20226;-81
2021/01/27 00:35:15;;;;;;;1999.90;999.90;;;2.70;99.90;;;;;;5061573;28;20164;-81
2021/01/27 00:37:41;;;;;;;1999.90;999.90;;;2.60;99.90;;;;;;5060700;28;20578;-81
2021/01/27 00:40:08;;;;;;;1999.90;999.90;;;2.60;99.90;;;;;;5060406;28;20252;-81
2021/01/27 00:42:34;;;;;;;1999.90;999.90;;;2.70;99.90;;;;;;5129922;22;20298;-85
2021/01/27 00:45:00;;;;;;;1999.90;999.90;;;2.70;99.90;;;;;;5054867;28;20653;-85
2021/01/27 00:47:25;;;;;;;1999.90;999.90;;;2.70;99.90;;;;;;5054657;28;20167;-86
2021/01/27 00:49:51;;;;;;;1999.90;999.90;;;2.70;99.90;;;;;;5054670;28;20886;-85
2021/01/27 00:52:17;;;;;;;1999.90;999.90;;;2.60;99.90;;;;;;5036579;28;20164;-85
2021/01/27 00:54:42;;;;;;;1999.90;999.90;;;2.60;99.90;;;;;;5054441;28;20160;-86
2021/01/27 00:57:08;;;;;;;1999.90;999.90;;;2.60;99.90;;;;;;5036517;28;20168;-85
2021/01/27 00:59:34;;;;;;;1999.90;999.90;;;2.60;99.90;;;;;;5036551;28;20176;-85
2021/01/27 01:01:59;;;;;;;1999.90;999.90;;;2.60;99.90;;;;;;5035799;28;20172;-85
2021/01/27 01:04:25;;;;;;;1999.90;999.90;;;2.60;99.90;;;;;;5036214;28;20176;-86
2021/01/27 01:06:51;;;;;;;1999.90;999.90;;;2.60;99.90;;;;;;5036409;28;20179;-86
2021/01/27 01:09:16;;;;;;;1999.90;999.90;;;2.60;99.90;;;;;;5054072;28;20164;-85
2021/01/27 01:11:42;;;;;;;1999.90;999.90;;;2.60;99.90;;;;;;5054060;28;20214;-85
2021/01/27 01:14:08;;;;;;;1999.90;999.90;;;2.50;99.90;;;;;;5036578;28;20211;-85
2021/01/27 01:16:33;;;;;;;1999.90;999.90;;;2.60;99.90;;;;;;5053843;28;20176;-85
2021/01/27 01:18:59;;;;;;;1999.90;999.90;;;2.60;99.90;;;;;;5053999;28;20170;-85
2021/01/27 01:21:25;;;;;;;1999.90;999.90;;;2.60;99.90;;;;;;5054143;28;20225;-86
2021/01/27 01:23:50;;;;;;;1999.90;999.90;;;2.60;99.90;;;;;;5054106;28;20165;-85
2021/01/27 01:26:16;;;;;;;1999.90;999.90;;;2.50;99.90;;;;;;5054005;28;20168;-85
2021/01/27 01:28:41;;;;;;;1999.90;999.90;;;2.60;99.90;;;;;;5054046;28;20164;-86
2021/01/27 01:31:07;;;;;;;1999.90;999.90;;;2.60;99.90;;;;;;5035872;28;20168;-85
2021/01/27 01:33:33;;;;;;;1999.90;999.90;;;2.60;99.90;;;;;;5053759;28;20226;-85
2021/01/27 01:36:00;;;;;;;1999.90;999.90;;;2.60;99.90;;;;;;5054191;28;20627;-86
2021/01/27 01:38:26;;;;;;;1999.90;999.90;;;2.60;99.90;;;;;;5053619;28;20191;-86
2021/01/27 01:40:54;;;;;;;1999.90;999.90;;;2.70;99.90;;;;;;5053604;28;20192;-86
2021/01/27 01:43:28;;;;;;;1999.90;999.90;;;2.80;99.90;;;;;;5054106;28;20680;-85
2021/01/27 01:45:59;;;;;;;1999.90;999.90;;;2.90;99.90;;;;;;5036332;28;20172;-86
2021/01/27 01:48:49;;;;;;;1999.90;999.90;;;2.80;99.90;;;;;;5035978;28;20191;-86
2021/01/27 01:51:30;;;;;;;1999.90;999.90;;;2.80;99.90;;;;;;5036368;28;20524;-85
2021/01/27 01:54:02;;;;;;;1999.90;999.90;;;3.00;99.90;;;;;;5053941;28;20663;-85
2021/01/27 01:56:33;;;;;;;1999.90;999.90;;;2.90;99.90;;;;;;5054040;28;20161;-86
2021/01/27 01:59:02;;;;;;;1999.90;999.90;;;3.00;99.90;;;;;;5035901;28;20176;-85
2021/01/27 02:01:28;;;;;;;1999.90;999.90;;;3.00;99.90;;;;;;5053727;28;20302;-86
2021/01/27 02:03:54;;;;;;;1999.90;999.90;;;3.00;99.90;;;;;;5035277;28;20172;-85
2021/01/27 02:06:20;;;;;;;1999.90;999.90;;;3.00;99.90;;;;;;5053463;28;20157;-86
2021/01/27 02:08:53;;;;;;;1999.90;999.90;;;3.00;99.90;;;;;;5035346;28;20659;-85
2021/01/27 02:11:52;;;;;;;1999.90;999.90;;;3.10;99.90;;;;;;5035513;28;20722;-86
2021/01/27 02:14:36;;;;;;;1999.90;999.90;;;3.10;99.90;;;;;;5052792;28;20184;-85
2021/01/27 02:17:18;;;;;;;1999.90;999.90;;;3.10;99.90;;;;;;5039284;28;20167;-85
2021/01/27 02:20:05;;;;;;;1999.90;999.90;;;3.20;99.90;;;;;;5039020;28;20165;-85
2021/01/27 02:23:08;;;;;;;1999.90;999.90;;;3.30;99.90;;;;;;5057531;28;20505;-85
2021/01/27 02:25:55;;;;;;;1999.90;999.90;;;3.30;99.90;;;;;;5056901;28;20153;-86
2021/01/27 02:29:05;;;;;;;1999.90;999.90;;;3.30;99.90;;;;;;5039238;28;20165;-85
2021/01/27 02:32:00;;;;;;;1999.90;999.90;;;3.30;99.90;;;;;;4957215;29;20192;-86
2021/01/27 02:34:58;;;;;;;1999.90;999.90;;;3.20;99.90;;;;;;5056939;28;20184;-86
2021/01/27 02:37:41;;;;;;;1999.90;999.90;;;3.20;99.90;;;;;;5038959;28;20172;-85
2021/01/27 02:40:17;;;;;;;1999.90;999.90;;;3.20;99.90;;;;;;5038915;28;20192;-85
2021/01/27 02:42:51;;;;;;;1999.90;999.90;;;3.20;99.90;;;;;;5038760;28;20187;-85
2021/01/27 02:45:24;;;;;;;1999.90;999.90;;;3.20;99.90;;;;;;5057101;28;20147;-85
2021/01/27 02:48:15;;;;;;;1999.90;999.90;;;3.20;99.90;;;;;;5056643;28;20160;-86
2021/01/27 02:50:47;;;;;;;1999.90;999.90;;;3.10;99.90;;;;;;5056926;28;20211;-86
2021/01/27 02:53:28;;;;;;;1999.90;999.90;;;3.10;99.90;;;;;;5056512;28;20218;-85
2021/01/27 02:56:00;;;;;;;1999.90;999.90;;;3.00;99.90;;;;;;5038655;28;20168;-86
2021/01/27 02:58:39;;;;;;;1999.90;999.90;;;3.00;99.90;;;;;;5056435;28;20148;-86
2021/01/27 03:01:21;;;;;;;1999.90;999.90;;;2.90;99.90;;;;;;5056168;28;20188;-86
2021/01/27 03:03:54;;;;;;;1999.90;999.90;;;3.00;99.90;;;;;;5056540;28;20149;-86
2021/01/27 03:06:21;;;;;;;1999.90;999.90;;;3.00;99.90;;;;;;5038035;28;20164;-86
2021/01/27 03:09:10;;;;;;;1999.90;999.90;;;3.00;99.90;;;;;;5056345;28;20161;-86
2021/01/27 03:11:36;;;;;;;1999.90;999.90;;;2.90;99.90;;;;;;5038660;28;20566;-86
2021/01/27 03:14:04;;;;;;;1999.90;999.90;;;2.80;99.90;;;;;;5037831;28;20169;-86
2021/01/27 03:17:01;;;;;;;1999.90;999.90;;;2.70;99.90;;;;;;5055770;28;20165;-86
2021/01/27 03:19:36;;;;;;;1999.90;999.90;;;2.60;99.90;;;;;;5036044;28;20259;-87
2021/01/27 03:22:09;;;;;;;1999.90;999.90;;;2.70;99.90;;;;;;5038109;28;20214;-87
2021/01/27 03:24:42;;;;;;;1999.90;999.90;;;2.70;99.90;;;;;;5037358;28;20555;-87
2021/01/27 03:27:22;;;;;;;1999.90;999.90;;;2.70;99.90;;;;;;5055092;28;20145;-87
2021/01/27 03:29:52;;;;;;;1999.90;999.90;;;2.70;99.90;;;;;;5037214;28;20531;-87
2021/01/27 03:32:33;;;;;;;1999.90;999.90;;;2.80;99.90;;;;;;5054981;28;20179;-87
2021/01/27 03:35:13;;;;;;;1999.90;999.90;;;2.70;99.90;;;;;;5037707;28;20161;-87
2021/01/27 03:37:48;;;;;;;1999.90;999.90;;;2.70;99.90;;;;;;5055178;28;20229;-87
2021/01/27 03:40:17;;;;;;;1999.90;999.90;;;2.60;99.90;;;;;;5055182;28;20234;-87
2021/01/27 03:43:04;;;;;;;1999.90;999.90;;;2.50;99.90;;;;;;5054740;28;20234;-87
2021/01/27 03:45:34;;;;;;;1999.90;999.90;;;2.40;99.90;;;;;;5037042;28;20247;-87
2021/01/27 03:48:23;;;;;;;1999.90;999.90;;;2.50;99.90;;;;;;5055331;28;20165;-87
2021/01/27 03:50:54;;;;;;;1999.90;999.90;;;2.40;99.90;;;;;;5054836;28;20161;-87
2021/01/27 03:53:20;;;;;;;1999.90;999.90;;;2.40;99.90;;;;;;5036922;28;20171;-87
2021/01/27 03:56:03;;;;;;;1999.90;999.90;;;2.30;99.90;;;;;;5037020;28;20260;-87
2021/01/27 03:58:40;;;;;;;1999.90;999.90;;;2.30;99.90;;;;;;5037880;28;20165;-87
2021/01/27 04:01:21;;;;;;;1999.90;999.90;;;2.20;99.90;;;;;;5054448;28;20230;-87
2021/01/27 04:03:52;;;;;;;1999.90;999.90;;;2.20;99.90;;;;;;5054754;28;20202;-87
2021/01/27 04:06:19;;;;;;;1999.90;999.90;;;2.20;99.90;;;;;;5037682;28;20165;-87
2021/01/27 04:08:45;;;;;;;1999.90;999.90;;;2.20;99.90;;;;;;5054346;28;20161;-87
2021/01/27 04:11:11;;;;;;;1999.90;999.90;;;2.20;99.90;;;;;;5036430;28;20192;-87
2021/01/27 04:13:37;;;;;;;1999.90;999.90;;;2.20;99.90;;;;;;5054463;28;20778;-87
2021/01/27 04:16:04;;;;;;;1999.90;999.90;;;2.20;99.90;;;;;;5036292;28;20265;-87
2021/01/27 04:18:30;;;;;;;1999.90;999.90;;;2.20;99.90;;;;;;5054603;28;20251;-87
2021/01/27 04:20:56;;;;;;;1999.90;999.90;;;2.20;99.90;;;;;;5054005;28;20263;-87
2021/01/27 04:23:22;;;;;;;1999.90;999.90;;;2.20;99.90;;;;;;5054288;28;20395;-87
2021/01/27 04:25:47;;;;;;;1999.90;999.90;;;2.20;99.90;;;;;;5036157;28;20186;-87
2021/01/27 04:28:14;;;;;;;1999.90;999.90;;;2.20;99.90;;;;;;5036332;28;20409;-87
2021/01/27 04:30:39;;;;;;;1999.90;999.90;;;2.20;99.90;;;;;;5036091;28;20513;-87
2021/01/27 04:33:08;;;;;;;1999.90;999.90;;;2.20;99.90;;;;;;5054495;28;20172;-87
2021/01/27 04:35:34;;;;;;;1999.90;999.90;;;2.20;99.90;;;;;;5053742;28;20179;-87
2021/01/27 04:38:01;;;;;;;1999.90;999.90;;;2.20;99.90;;;;;;5036282;28;20165;-87
2021/01/27 04:40:32;;;;;;;1999.90;999.90;;;2.30;99.90;;;;;;5036101;28;20196;-87
2021/01/27 04:42:58;;;;;;;1999.90;999.90;;;2.20;99.90;;;;;;5053734;28;20191;-87
2021/01/27 04:45:25;;;;;;;1999.90;999.90;;;2.20;99.90;;;;;;5036212;28;20172;-87
2021/01/27 04:48:11;;;;;;;1999.90;999.90;;;2.30;99.90;;;;;;5053820;28;20632;-87
2021/01/27 04:50:45;;;;;;;1999.90;999.90;;;2.20;99.90;;;;;;5052814;28;20188;-87
2021/01/27 04:53:37;;;;;;;1999.90;999.90;;;2.30;99.90;;;;;;5036383;28;20164;-86
2021/01/27 04:56:06;;;;;;;1999.90;999.90;;;2.20;99.90;;;;;;5036566;28;20607;-86
2021/01/27 04:58:51;;;;;;;1999.90;999.90;;;2.20;99.90;;;;;;5053618;28;20165;-86
2021/01/27 05:01:52;;;;;;;1999.90;999.90;;;2.20;99.90;;;;;;5053525;28;20188;-86
2021/01/27 05:04:41;;;;;;;1999.90;999.90;;;2.20;99.90;;;;;;5026523;28;20647;-86
2021/01/27 05:07:12;;;;;;;1999.90;999.90;;;2.20;99.90;;;;;;5022461;28;20184;-86
2021/01/27 05:09:44;;;;;;;1999.90;999.90;;;2.20;99.90;;;;;;5035600;28;20161;-87
2021/01/27 05:12:10;;;;;;;1999.90;999.90;;;2.20;99.90;;;;;;5053350;28;20141;-87
2021/01/27 05:14:37;;;;;;;1999.90;999.90;;;2.20;99.90;;;;;;5053424;28;20164;-87
2021/01/27 05:17:08;;;;;;;1999.90;999.90;;;2.20;99.90;;;;;;5035936;28;20174;-87
2021/01/27 05:19:34;;;;;;;1999.90;999.90;;;2.20;99.90;;;;;;5053706;28;20156;-87
2021/01/27 05:22:01;;;;;;;1999.90;999.90;;;2.20;99.90;;;;;;5053267;28;20551;-87
2021/01/27 05:24:27;;;;;;;1999.90;999.90;;;2.20;99.90;;;;;;5036278;28;20500;-87
2021/01/27 05:27:00;;;;;;;1999.90;999.90;;;2.20;99.90;;;;;;5035818;28;20168;-87
2021/01/27 05:29:35;;;;;;;1999.90;999.90;;;2.20;99.90;;;;;;5053031;28;20403;-87
2021/01/27 05:32:20;;;;;;;1999.90;999.90;;;2.20;99.90;;;;;;5053379;28;20511;-87
2021/01/27 05:34:54;;;;;;;1999.90;999.90;;;2.20;99.90;;;;;;5053339;28;20207;-87
2021/01/27 05:37:29;;;;;;;1999.90;999.90;;;2.20;99.90;;;;;;5052973;28;20172;-87
2021/01/27 05:40:15;;;;;;;1999.90;999.90;;;2.20;99.90;;;;;;5052942;28;20262;-87
2021/01/27 05:42:43;;;;;;;1999.90;999.90;;;2.30;99.90;;;;;;5052873;28;20263;-87
2021/01/27 05:45:23;;;;;;;1999.90;999.90;;;2.30;99.90;;;;;;5053236;28;20211;-87
2021/01/27 05:47:49;;;;;;;1999.90;999.90;;;2.20;99.90;;;;;;5038196;28;20195;-87
2021/01/27 05:50:27;;;;;;;1999.90;999.90;;;2.20;99.90;;;;;;5040140;28;20485;-87
2021/01/27 05:52:53;;;;;;;1999.90;999.90;;;2.20;99.90;;;;;;5039673;28;20168;-87
2021/01/27 05:55:18;;;;;;;1999.90;999.90;;;2.20;99.90;;;;;;5039283;28;20554;-87
2021/01/27 05:57:57;;;;;;;1999.90;999.90;;;2.20;99.90;;;;;;5056892;28;20635;-87
2021/01/27 06:00:28;;;;;;;1999.90;999.90;;;2.20;99.90;;;;;;5057120;28;20267;-87
2021/01/27 06:02:56;;;;;;;1999.90;999.90;;;2.20;99.90;;;;;;5056840;28;20153;-87
2021/01/27 06:05:49;;;;;;;1999.90;999.90;;;2.10;99.90;;;;;;5038809;28;20586;-87
2021/01/27 06:08:22;;;;;;;1999.90;999.90;;;2.10;99.90;;;;;;5052616;28;20246;-87
2021/01/27 06:10:50;;;;;;;1999.90;999.90;;;2.00;99.90;;;;;;5056900;28;20675;-87
2021/01/27 06:13:15;;;;;;;1999.90;999.90;;;2.00;99.90;;;;;;5056469;28;20169;-87
2021/01/27 06:15:41;;;;;;;1999.90;999.90;;;2.00;99.90;;;;;;5057081;28;20252;-87
2021/01/27 06:18:28;;;;;;;1999.90;999.90;;;2.00;99.90;;;;;;5056417;28;20187;-87
2021/01/27 06:21:18;;;;;;;1999.90;999.90;;;1.90;99.90;;;;;;5056838;28;20188;-87
2021/01/27 06:24:15;;;;;;;1999.90;999.90;;;1.90;99.90;;;;;;5056364;28;20149;-87
2021/01/27 06:27:02;;;;;;;1999.90;999.90;;;1.90;99.90;;;;;;5038434;28;20255;-87
2021/01/27 06:29:38;;;;;;;1999.90;999.90;;;1.90;99.90;;;;;;5056340;28;20149;-87
2021/01/27 06:32:26;;;;;;;1999.90;999.90;;;1.80;99.90;;;;;;5057214;28;20619;-86
2021/01/27 06:35:04;;;;;;;1999.90;999.90;;;1.90;99.90;;;;;;5041198;28;20164;-86
2021/01/27 06:37:40;;;;;;;1999.90;999.90;;;1.80;99.90;;;;;;5059026;28;20153;-86
2021/01/27 06:40:12;;;;;;;1999.90;999.90;;;1.70;99.90;;;;;;5058394;28;20270;-86
2021/01/27 06:43:25;;;;;;;1999.90;999.90;;;1.70;99.90;;;;;;5100084;22;20228;-80
2021/01/27 06:46:16;;;;;;;1999.90;999.90;;;1.70;99.90;;;;;;5040591;28;20154;-80
2021/01/27 06:49:04;;;;;;;1999.90;999.90;;;1.70;99.90;;;;;;5041000;28;20157;-80
2021/01/27 06:51:47;;;;;;;1999.90;999.90;;;1.70;99.90;;;;;;5040778;28;20240;-80
2021/01/27 06:54:39;;;;;;;1999.90;999.90;;;1.70;99.90;;;;;;5040815;28;20625;-80
2021/01/27 06:57:38;;;;;;;1999.90;999.90;;;1.70;99.90;;;;;;5040643;28;20156;-80
2021/01/27 07:00:39;;;;;;;1999.90;999.90;;;1.70;99.90;;;;;;5040509;28;20154;-80
2021/01/27 07:03:10;;;;;;;1999.90;999.90;;;1.70;99.90;;;;;;4994568;28;20632;-80
2021/01/27 07:05:39;;;;;;;1999.90;999.90;;;1.70;99.90;;;;;;5041073;28;20623;-81
2021/01/27 07:08:11;;;;;;;1999.90;999.90;;;1.70;99.90;;;;;;5041282;28;20625;-80
2021/01/27 07:10:43;;;;;;;1999.90;999.90;;;1.70;99.90;;;;;;5040909;28;20158;-80
2021/01/27 07:13:30;;;;;;;1999.90;999.90;;;1.70;99.90;;;;;;5022491;28;20244;-80
2021/01/27 07:16:14;;;;;;;1999.90;999.90;;;1.60;99.90;;;;;;5040412;28;20172;-80
2021/01/27 07:19:05;;;;;;;1999.90;999.90;;;1.60;99.90;;;;;;5040154;28;20157;-80
2021/01/27 07:21:51;;;;;;;1999.90;999.90;;;1.70;99.90;;;;;;5039501;28;20522;-80
2021/01/27 07:24:44;;;;;;;1999.90;999.90;;;1.70;99.90;;;;;;5039798;28;20160;-80
2021/01/27 07:27:23;;;;;;;1999.90;999.90;;;1.70;99.90;;;;;;5021679;28;20537;-80
2021/01/27 07:30:07;;;;;;;1999.90;999.90;;;1.70;99.90;;;;;;5039823;28;20169;-80
2021/01/27 07:32:46;;;;;;;1999.90;999.90;;;1.70;99.90;;;;;;5022462;28;20215;-80
2021/01/27 07:35:25;;;;;;;1999.90;999.90;;;1.70;99.90;;;;;;5039937;28;20157;-80
2021/01/27 07:37:58;;;;;;;1999.90;999.90;;;1.70;99.90;;;;;;5022612;28;20284;-79
2021/01/27 07:40:35;;;;;;;1999.90;999.90;;;1.70;99.90;;;;;;5039024;28;20181;-80
2021/01/27 07:43:18;;;;;;;1999.90;999.90;;;1.70;99.90;;;;;;5039385;28;20179;-79
2021/01/27 07:45:49;;;;;;;1999.90;999.90;;;1.70;99.90;;;;;;5022435;28;20236;-79
2021/01/27 07:48:24;;;;;;;1999.90;999.90;;;1.70;99.90;;;;;;5040571;28;20220;-79
2021/01/27 07:51:02;;;;;;;1999.90;999.90;;;1.70;99.90;;;;;;5039401;28;20211;-77
2021/01/27 07:53:55;;;;;;;1999.90;999.90;;;1.70;99.90;;;;;;5037342;28;20516;-78
2021/01/27 07:56:31;;;;;;;1999.90;999.90;;;1.80;99.90;;;;;;5022253;28;20157;-79
2021/01/27 07:59:10;;;;;;;1999.90;999.90;;;1.80;99.90;;;;;;5039397;28;20200;-80
2021/01/27 08:01:50;;;;;;;1999.90;999.90;;;1.80;99.90;;;;;;5039226;28;20525;-79
2021/01/27 08:04:40;;;;;;;1999.90;999.90;;;1.80;99.90;;;;;;5038949;28;20149;-79
2021/01/27 08:07:16;;;;;;;1999.90;999.90;;;1.80;99.90;;;;;;5021889;28;20161;-79
2021/01/27 08:09:45;;;;;;;1999.90;999.90;;;1.80;99.90;;;;;;5021195;28;20157;-79
2021/01/27 08:12:19;;;;;;;1999.90;999.90;;;1.80;99.90;;;;;;5039415;28;20169;-79
2021/01/27 08:15:06;;;;;;;1999.90;999.90;;;1.80;99.90;;;;;;5039659;28;20157;-79
2021/01/27 08:17:44;;;;;;;1999.90;999.90;;;1.80;99.90;;;;;;5021359;28;20719;-79
2021/01/27 08:20:18;;;;;;;1999.90;999.90;;;1.80;99.90;;;;;;5038096;28;20185;-79
2021/01/27 08:22:50;;;;;;;1999.90;999.90;;;1.80;99.90;;;;;;5020934;28;20165;-79
2021/01/27 08:25:49;;;;;;;1999.90;999.90;;;1.80;99.90;;;;;;5038537;28;20188;-79
2021/01/27 08:28:46;;;;;;;1999.90;999.90;;;1.90;99.90;;;;;;4983421;28;20201;-79
2021/01/27 08:31:18;;;;;;;1999.90;999.90;;;1.90;99.90;;;;;;5019320;28;20185;-79
2021/01/27 08:33:56;;;;;;;1999.90;999.90;;;1.90;99.90;;;;;;5039012;28;20164;-79
2021/01/27 08:36:36;;;;;;;1999.90;999.90;;;1.90;99.90;;;;;;5021088;28;20252;-80
2021/01/27 08:39:15;;;;;;;1999.90;999.90;;;2.00;99.90;;;;;;5038512;28;20223;-80
2021/01/27 08:41:56;;;;;;;1999.90;999.90;;;2.00;99.90;;;;;;5038875;28;20225;-79
2021/01/27 08:44:22;;;;;;;1999.90;999.90;;;2.10;99.90;;;;;;5039020;28;20188;-79
2021/01/27 08:46:51;;;;;;;1999.90;999.90;;;2.10;99.90;;;;;;5038764;28;20169;-79
2021/01/27 08:50:15;;;;;;;1999.90;999.90;;;2.10;99.90;;;;;;5037869;28;20252;-79
2021/01/27 08:52:45;;;;;;;1999.90;999.90;;;2.10;99.90;;;;;;4937294;29;20181;-79
2021/01/27 08:55:59;;;;;;;;;;;;;;;;;;;;;
2021/01/27 08:58:49;;;;;;;;;;;;;;;;;;;;;
2021/01/27 09:01:22;;;;;;;1999.90;999.90;;;2.10;99.90;;;;;;5036973;28;20200;-79
2021/01/27 09:03:54;;;;;;;1999.90;999.90;;;2.10;99.90;;;;;;5033916;28;20671;-77
2021/01/27 09:07:01;;;;;;;1999.90;999.90;;;2.10;99.90;;;;;;5033775;28;20165;-79
2021/01/27 09:09:38;;;;;;;1999.90;999.90;;;2.10;99.90;;;;;;5019398;28;20161;-79
2021/01/27 09:12:15;;;;;;;1999.90;999.90;;;2.20;99.90;;;;;;5036442;28;20153;-79
2021/01/27 09:14:52;;;;;;;1999.90;999.90;;;2.20;99.90;;;;;;5018734;28;20207;-78
2021/01/27 09:17:23;;;;;;;1999.90;999.90;;;2.20;99.90;;;;;;5019688;28;20165;-79
2021/01/27 09:19:55;;;;;;;1999.90;999.90;;;2.30;99.90;;;;;;5036691;28;20181;-79
2021/01/27 09:22:25;;;;;;;1999.90;999.90;;;2.30;99.90;;;;;;5034156;28;20173;-77
2021/01/27 09:24:55;;;;;;;1999.90;999.90;;;2.30;99.90;;;;;;5034005;28;20212;-77
2021/01/27 09:27:26;;;;;;;1999.90;999.90;;;2.30;99.90;;;;;;5034077;28;20165;-77
2021/01/27 09:30:07;;;;;;;1999.90;999.90;;;2.40;99.90;;;;;;5017848;28;20165;-79
2021/01/27 09:32:34;;;;;;;1999.90;999.90;;;2.40;99.90;;;;;;5036038;28;20609;-79
2021/01/27 09:35:08;;;;;;;1999.90;999.90;;;2.40;99.90;;;;;;5037462;28;20668;-79
2021/01/27 09:37:37;;;;;;;1999.90;999.90;;;2.60;99.90;;;;;;5034767;28;20161;-77
2021/01/27 09:40:10;;;;;;;1999.90;999.90;;;2.70;99.90;;;;;;5034851;28;20185;-79
2021/01/27 09:42:37;;;;;;;1999.90;999.90;;;2.80;99.90;;;;;;5034591;28;20181;-77
2021/01/27 09:45:14;;;;;;;1999.90;999.90;;;2.70;99.90;;;;;;5017540;28;20169;-77
2021/01/27 09:47:43;;;;;;;1999.90;999.90;;;2.70;99.90;;;;;;5037324;28;20157;-79
2021/01/27 09:50:10;;;;;;;1999.90;999.90;;;2.70;99.90;;;;;;5037807;28;20157;-80
2021/01/27 09:52:36;;;;;;;1999.90;999.90;;;2.80;99.90;;;;;;5020089;28;20166;-80
2021/01/27 09:55:05;;;;;;;1999.90;999.90;;;2.80;99.90;;;;;;5037815;28;20580;-80
2021/01/27 09:57:31;;;;;;;1999.90;999.90;;;2.70;99.90;;;;;;5019887;28;20165;-79
2021/01/27 09:59:57;;;;;;;1999.90;999.90;;;2.70;99.90;;;;;;5020383;28;20690;-80
2021/01/27 10:02:34;;;;;;;1999.90;999.90;;;2.80;99.90;;;;;;5037783;28;20996;-80
2021/01/27 10:05:02;;;;;;;1999.90;999.90;;;2.80;99.90;;;;;;5038053;28;20161;-79
2021/01/27 10:07:34;;;;;;;1999.90;999.90;;;2.80;99.90;;;;;;5038263;28;20169;-80
2021/01/27 10:10:18;;;;;;;1999.90;999.90;;;2.80;99.90;;;;;;5020980;28;20215;-79
2021/01/27 10:12:45;;;;;;;1999.90;999.90;;;2.80;99.90;;;;;;5039206;28;20141;-80
2021/01/27 10:15:30;;;;;;;1999.90;999.90;;;2.90;99.90;;;;;;5038477;28;20682;-80
2021/01/27 10:18:12;;;;;;;1999.90;999.90;;;2.90;99.90;;;;;;5038877;28;20145;-80
2021/01/27 10:20:40;;;;;;;1999.90;999.90;;;2.90;99.90;;;;;;5021187;28;20193;-80
2021/01/27 10:23:09;;;;;;;1999.90;999.90;;;3.00;99.90;;;;;;5037606;28;20172;-79
2021/01/27 10:25:37;;;;;;;1999.90;999.90;;;3.00;99.90;;;;;;5015337;28;20181;-77
2021/01/27 10:28:13;;;;;;;1999.90;999.90;;;3.00;99.90;;;;;;5034278;28;20173;-77
2021/01/27 10:30:53;;;;;;;1999.90;999.90;;;3.10;99.90;;;;;;5016280;28;20189;-77
2021/01/27 10:33:40;;;;;;;1999.90;999.90;;;3.10;99.90;;;;;;5039190;28;20508;-80
2021/01/27 10:36:24;;;;;;;1999.90;999.90;;;3.20;99.90;;;;;;5041248;28;20240;-79
2021/01/27 10:39:12;;;;;;;1999.90;999.90;;;3.20;99.90;;;;;;5041021;28;20183;-79
2021/01/27 10:41:38;;;;;;;1999.90;999.90;;;3.10;99.90;;;;;;5041880;28;20223;-79
2021/01/27 10:44:33;;;;;;;1999.90;999.90;;;3.10;99.90;;;;;;5023319;28;20175;-80
2021/01/27 10:47:28;;;;;;;1999.90;999.90;;;3.10;99.90;;;;;;5042080;28;20176;-79
2021/01/27 10:49:56;;;;;;;1999.90;999.90;;;3.10;99.90;;;;;;5041130;28;20239;-80
2021/01/27 10:52:24;;;;;;;1999.90;999.90;;;3.20;99.90;;;;;;5040971;28;20192;-79
2021/01/27 10:54:56;;;;;;;1999.90;999.90;;;3.20;99.90;;;;;;5041182;28;20219;-79
2021/01/27 10:57:22;;;;;;;1999.90;999.90;;;3.30;99.90;;;;;;5019176;28;20260;-79
2021/01/27 10:59:51;;;;;;;1999.90;999.90;;;3.30;99.90;;;;;;5020134;28;20660;-79
2021/01/27 11:02:29;;;;;;;1999.90;999.90;;;3.40;99.90;;;;;;5019598;28;20458;-77
2021/01/27 11:04:59;;;;;;;1999.90;999.90;;;3.40;99.90;;;;;;5018504;28;20231;-77
2021/01/27 11:07:25;;;;;;;1999.90;999.90;;;3.30;99.90;;;;;;5036621;28;20698;-79
2021/01/27 11:09:51;;;;;;;1999.90;999.90;;;3.30;99.90;;;;;;5022862;28;20687;-79
2021/01/27 11:12:30;;;;;;;1999.90;999.90;;;3.40;99.90;;;;;;5019403;28;20177;-76
2021/01/27 11:14:56;;;;;;;1999.90;999.90;;;3.40;99.90;;;;;;5018481;28;20207;-77
2021/01/27 11:17:22;;;;;;;1999.90;999.90;;;3.40;99.90;;;;;;5021879;28;20270;-80
2021/01/27 11:19:48;;;;;;;1999.90;999.90;;;3.40;99.90;;;;;;5041478;28;20181;-79
2021/01/27 11:22:13;;;;;;;1999.90;999.90;;;3.50;99.90;;;;;;5041008;28;20196;-79
2021/01/27 11:24:39;;;;;;;1999.90;999.90;;;3.50;99.90;;;;;;5023360;28;20177;-79
2021/01/27 11:27:05;;;;;;;1999.90;999.90;;;3.50;99.90;;;;;;5041141;28;20165;-80
2021/01/27 11:29:30;;;;;;;1999.90;999.90;;;3.50;99.90;;;;;;5041102;28;20470;-79
2021/01/27 11:31:56;;;;;;;1999.90;999.90;;;3.50;99.90;;;;;;5042140;28;20173;-79
2021/01/27 11:34:22;;;;;;;1999.90;999.90;;;3.60;99.90;;;;;;5041353;28;20509;-79
2021/01/27 11:36:47;;;;;;;1999.90;999.90;;;3.60;99.90;;;;;;5040663;28;20640;-79
2021/01/27 11:39:13;;;;;;;1999.90;999.90;;;3.60;99.90;;;;;;5041022;28;20173;-79
2021/01/27 11:41:39;;;;;;;1999.90;999.90;;;3.60;99.90;;;;;;5022253;28;20577;-80
2021/01/27 11:44:04;;;;;;;1999.90;999.90;;;3.70;99.90;;;;;;5039367;28;20219;-79
2021/01/27 11:46:31;;;;;;;1999.90;999.90;;;3.70;99.90;;;;;;5022195;28;20173;-79
2021/01/27 11:48:57;;;;;;;1999.90;999.90;;;3.70;99.90;;;;;;5040435;28;20235;-79
2021/01/27 11:51:23;;;;;;;1999.90;999.90;;;3.70;99.90;;;;;;5040120;28;20166;-79
2021/01/27 11:53:48;;;;;;;1999.90;999.90;;;3.70;99.90;;;;;;5040361;28;20407;-80
2021/01/27 11:56:14;;;;;;;1999.90;999.90;;;3.70;99.90;;;;;;5039786;28;20202;-79
2021/01/27 11:58:40;;;;;;;1999.90;999.90;;;3.60;99.90;;;;;;5040663;28;20516;-78
2021/01/27 12:01:06;;;;;;;1999.90;999.90;;;3.60;99.90;;;;;;5038885;28;20185;-78
2021/01/27 12:03:32;;;;;;;1999.90;999.90;;;3.60;99.90;;;;;;5040344;28;20161;-79
2021/01/27 12:05:58;;;;;;;1999.90;999.90;;;3.60;99.90;;;;;;5040801;28;20631;-79
2021/01/27 12:08:27;;;;;;;1999.90;999.90;;;3.60;99.90;;;;;;5022453;28;20181;-78
2021/01/27 12:10:53;;;;;;;1999.90;999.90;;;3.60;99.90;;;;;;5023013;28;20169;-79
2021/01/27 12:13:19;;;;;;;1999.90;999.90;;;3.70;99.90;;;;;;5040312;28;20219;-79
2021/01/27 12:15:45;;;;;;;1999.90;999.90;;;3.60;99.90;;;;;;5039675;28;20571;-79
2021/01/27 12:18:12;;;;;;;1999.90;999.90;;;3.60;99.90;;;;;;5039337;28;20399;-78
2021/01/27 12:20:39;;;;;;;1999.90;999.90;;;3.60;99.90;;;;;;5039545;28;20188;-79
2021/01/27 12:23:05;;;;;;;1999.90;999.90;;;3.70;99.90;;;;;;5021932;28;20536;-79
2021/01/27 12:25:31;;;;;;;1999.90;999.90;;;3.70;99.90;;;;;;5039712;28;20237;-78
2021/01/27 12:27:57;;;;;;;1999.90;999.90;;;3.70;99.90;;;;;;5040227;28;20248;-79
2021/01/27 12:30:23;;;;;;;1999.90;999.90;;;3.70;99.90;;;;;;5040124;28;20192;-80
2021/01/27 12:32:49;;;;;;;1999.90;999.90;;;3.60;99.90;;;;;;5021664;28;20181;-78
2021/01/27 12:35:17;;;;;;;1999.90;999.90;;;3.60;99.90;;;;;;5039546;28;20637;-79
2021/01/27 12:37:42;;;;;;;1999.90;999.90;;;3.70;99.90;;;;;;5039856;28;20227;-79
2021/01/27 12:40:12;;;;;;;1999.90;999.90;;;3.60;99.90;;;;;;5022562;28;20173;-78
2021/01/27 12:42:38;;;;;;;1999.90;999.90;;;3.70;99.90;;;;;;5039489;28;20201;-77
2021/01/27 12:45:07;;;;;;;1999.90;999.90;;;3.70;99.90;;;;;;5039064;28;20230;-78